Time;durP1;ratioP1;P1;durP2;ratioP2;P2;SDS_P1;SDS_P2;PMS_P1;PMS_P2;Temp;Humidity;BMP_temperature;BMP_pressure;BME280_temperature;BME280_humidity;BME280_pressure;Samples;Min_cycle;Max_cycle;Signal;HPM_P1;HPM_P2
2023/01/10 00:00:42;;;;;;;1.52;0.50;;;;;;;;;;4972910;28;20045;-79
2023/01/10 00:03:09;;;;;;;2.95;0.50;;;;;;;;;;4979676;28;20138;-80
2023/01/10 00:05:37;;;;;;;0.93;0.52;;;;;;;;;;4975423;28;20084;-80
2023/01/10 00:08:04;;;;;;;2.90;0.80;;;;;;;;;;4974992;28;20061;-80
2023/01/10 00:10:32;;;;;;;4.00;0.90;;;;;;;;;;4943815;28;20471;-80
2023/01/10 00:15:44;;;;;;;1.13;0.70;;;;;;;;;;4982305;28;20050;-80
2023/01/10 00:18:11;;;;;;;3.53;1.10;;;;;;;;;;4980371;28;20057;-80
2023/01/10 00:20:38;;;;;;;1.25;0.70;;;;;;;;;;4983780;28;20050;-80
2023/01/10 00:23:05;;;;;;;3.33;1.17;;;;;;;;;;4967400;28;20061;-80
2023/01/10 00:25:34;;;;;;;1.92;0.70;;;;;;;;;;4983557;28;20054;-79
2023/01/10 00:31:03;;;;;;;0.70;0.60;;;;;;;;;;5005541;28;20521;-80
2023/01/10 00:33:32;;;;;;;1.40;0.80;;;;;;;;;;4985515;28;20108;-80
2023/01/10 00:36:00;;;;;;;1.40;0.90;;;;;;;;;;5000970;28;20054;-80
2023/01/10 00:38:27;;;;;;;2.53;0.93;;;;;;;;;;4983721;28;20054;-80
2023/01/10 00:40:53;;;;;;;1.67;0.80;;;;;;;;;;4984037;28;20050;-79
2023/01/10 00:46:06;;;;;;;0.70;0.70;;;;;;;;;;4989610;28;20057;-80
2023/01/10 00:48:33;;;;;;;1.08;1.00;;;;;;;;;;4967931;28;20357;-80
2023/01/10 00:51:00;;;;;;;3.22;1.23;;;;;;;;;;4968959;28;20478;-82
2023/01/10 00:53:27;;;;;;;0.82;0.82;;;;;;;;;;4951824;28;20058;-83
2023/01/10 00:55:54;;;;;;;1.20;1.00;;;;;;;;;;4966007;28;20050;-81
2023/01/10 00:58:21;;;;;;;2.03;1.10;;;;;;;;;;4981357;28;20517;-81
2023/01/10 01:00:48;;;;;;;1.65;1.10;;;;;;;;;;4965850;28;20061;-81
2023/01/10 01:03:18;;;;;;;3.50;1.00;;;;;;;;;;4982644;28;20478;-81
2023/01/10 01:05:45;;;;;;;1.10;1.00;;;;;;;;;;4967021;28;20054;-81
2023/01/10 01:08:13;;;;;;;1.08;0.93;;;;;;;;;;4965494;28;20054;-81
2023/01/10 01:10:40;;;;;;;2.08;1.63;;;;;;;;;;4976321;28;20046;-81
2023/01/10 01:13:10;;;;;;;1.85;1.20;;;;;;;;;;4986067;28;20061;-81
2023/01/10 01:15:37;;;;;;;1.90;1.10;;;;;;;;;;4979853;28;20156;-82
2023/01/10 01:18:04;;;;;;;1.10;1.00;;;;;;;;;;4969810;28;20104;-82
2023/01/10 01:20:31;;;;;;;3.42;1.23;;;;;;;;;;4969550;28;20053;-82
2023/01/10 01:22:59;;;;;;;2.88;1.33;;;;;;;;;;4970194;28;20117;-81
2023/01/10 01:25:26;;;;;;;2.40;1.33;;;;;;;;;;5000543;28;20058;-81
2023/01/10 01:27:53;;;;;;;2.90;1.40;;;;;;;;;;4985134;28;20081;-81
2023/01/10 01:30:19;;;;;;;1.38;1.27;;;;;;;;;;4968439;28;20061;-80
2023/01/10 01:32:46;;;;;;;2.20;1.48;;;;;;;;;;4984184;28;20418;-80
2023/01/10 01:35:14;;;;;;;1.67;1.50;;;;;;;;;;4968890;28;20049;-81
2023/01/10 01:37:42;;;;;;;2.47;1.33;;;;;;;;;;4967871;28;20060;-82
2023/01/10 01:40:13;;;;;;;4.72;1.35;;;;;;;;;;5000386;28;20054;-81
2023/01/10 01:42:41;;;;;;;2.67;1.27;;;;;;;;;;4984882;28;20104;-82
2023/01/10 01:45:07;;;;;;;2.97;1.45;;;;;;;;;;4983693;28;20054;-82
2023/01/10 01:47:44;;;;;;;1.98;1.38;;;;;;;;;;5000378;28;20057;-81
2023/01/10 01:50:15;;;;;;;1.67;1.40;;;;;;;;;;5000199;28;20046;-81
2023/01/10 01:52:42;;;;;;;2.42;1.00;;;;;;;;;;4984067;28;20054;-81
2023/01/10 01:55:09;;;;;;;2.63;0.90;;;;;;;;;;4984114;28;20054;-81
2023/01/10 01:57:36;;;;;;;0.90;0.57;;;;;;;;;;4999976;28;20058;-81
2023/01/10 02:00:03;;;;;;;2.33;0.82;;;;;;;;;;4968540;28;20407;-81
2023/01/10 02:02:32;;;;;;;1.13;0.70;;;;;;;;;;4984075;28;20065;-80
2023/01/10 02:05:06;;;;;;;1.08;0.60;;;;;;;;;;4984490;28;20062;-81
2023/01/10 02:07:36;;;;;;;1.05;0.60;;;;;;;;;;5000300;28;20426;-80
2023/01/10 02:10:14;;;;;;;1.20;0.90;;;;;;;;;;4997236;28;20072;-82
2023/01/10 02:12:42;;;;;;;1.95;0.82;;;;;;;;;;4978894;28;20054;-81
2023/01/10 02:15:09;;;;;;;1.38;0.80;;;;;;;;;;4979177;28;20080;-81
2023/01/10 02:17:36;;;;;;;2.35;1.00;;;;;;;;;;4978897;28;20058;-81
2023/01/10 02:20:09;;;;;;;1.35;1.00;;;;;;;;;;4963913;28;20053;-80
2023/01/10 02:23:13;;;;;;;0.88;0.80;;;;;;;;;;4963312;28;20058;-80
2023/01/10 02:25:46;;;;;;;4.47;1.20;;;;;;;;;;4998136;28;20498;-80
2023/01/10 02:28:22;;;;;;;3.00;1.42;;;;;;;;;;4998870;28;20050;-80
2023/01/10 02:31:15;;;;;;;4.20;1.42;;;;;;;;;;5003923;28;20097;-82
2023/01/10 02:34:23;;;;;;;2.08;1.13;;;;;;;;;;4987752;28;20104;-81
2023/01/10 02:37:13;;;;;;;1.10;1.00;;;;;;;;;;4996757;28;20553;-81
2023/01/10 02:40:12;;;;;;;1.70;1.25;;;;;;;;;;4980607;28;20046;-82
2023/01/10 02:42:46;;;;;;;3.13;1.20;;;;;;;;;;4961408;28;20045;-81
2023/01/10 02:45:20;;;;;;;1.40;1.30;;;;;;;;;;4982156;28;20525;-81
2023/01/10 02:47:46;;;;;;;2.25;1.20;;;;;;;;;;4983503;28;20461;-81
2023/01/10 02:50:45;;;;;;;1.48;1.10;;;;;;;;;;4982843;28;20062;-81
2023/01/10 02:53:18;;;;;;;1.60;1.00;;;;;;;;;;4960253;28;20060;-80
2023/01/10 02:56:11;;;;;;;1.55;1.40;;;;;;;;;;5000191;28;20069;-81
2023/01/10 02:58:47;;;;;;;2.45;1.40;;;;;;;;;;5008565;28;20054;-81
2023/01/10 03:01:36;;;;;;;2.85;2.10;;;;;;;;;;4994971;28;20050;-81
2023/01/10 03:04:18;;;;;;;2.30;1.35;;;;;;;;;;4979320;28;20454;-81
2023/01/10 03:06:52;;;;;;;1.98;1.23;;;;;;;;;;4995151;28;20057;-82
2023/01/10 03:09:34;;;;;;;2.90;0.93;;;;;;;;;;4995771;28;20061;-81
2023/01/10 03:12:07;;;;;;;2.25;1.13;;;;;;;;;;4980571;28;20067;-82
2023/01/10 03:14:34;;;;;;;2.25;1.33;;;;;;;;;;4962469;28;20046;-81
2023/01/10 03:17:03;;;;;;;3.80;1.00;;;;;;;;;;4962102;28;20054;-82
2023/01/10 03:19:34;;;;;;;3.30;1.33;;;;;;;;;;4964259;28;20050;-81
2023/01/10 03:22:01;;;;;;;4.43;1.48;;;;;;;;;;4948260;28;20161;-80
2023/01/10 03:24:34;;;;;;;5.30;2.05;;;;;;;;;;4947830;28;20054;-80
2023/01/10 03:27:10;;;;;;;3.38;1.33;;;;;;;;;;4967938;28;20054;-80
2023/01/10 03:29:57;;;;;;;5.38;1.50;;;;;;;;;;4979852;28;20054;-81
2023/01/10 03:32:25;;;;;;;4.18;1.73;;;;;;;;;;4980128;28;20054;-81
2023/01/10 03:34:52;;;;;;;4.63;1.80;;;;;;;;;;4964339;28;20519;-81
2023/01/10 03:37:24;;;;;;;5.45;1.80;;;;;;;;;;4979566;28;20058;-80
2023/01/10 03:40:35;;;;;;;5.13;2.08;;;;;;;;;;4962789;28;20642;-80
2023/01/10 03:46:07;;;;;;;4.05;2.20;;;;;;;;;;4966976;28;20054;-80
2023/01/10 03:48:35;;;;;;;4.03;1.95;;;;;;;;;;4975466;28;20101;-79
2023/01/10 03:51:04;;;;;;;5.00;2.33;;;;;;;;;;4949679;28;20046;-79
2023/01/10 03:53:33;;;;;;;7.28;2.35;;;;;;;;;;4962719;28;20169;-81
2023/01/10 03:56:00;;;;;;;7.90;2.13;;;;;;;;;;5008063;28;20065;-81
2023/01/10 03:58:30;;;;;;;3.55;2.00;;;;;;;;;;4968791;28;20054;-79
2023/01/10 04:00:57;;;;;;;4.45;1.92;;;;;;;;;;4960309;28;20046;-80
2023/01/10 04:03:23;;;;;;;6.07;2.53;;;;;;;;;;4986192;28;20058;-80
2023/01/10 04:05:50;;;;;;;7.35;2.20;;;;;;;;;;4974522;28;20062;-80
2023/01/10 04:08:17;;;;;;;7.30;2.40;;;;;;;;;;4973617;28;20060;-81
2023/01/10 04:10:43;;;;;;;5.80;2.30;;;;;;;;;;4994496;28;20046;-80
2023/01/10 04:13:10;;;;;;;4.25;2.53;;;;;;;;;;4977983;28;20053;-80
2023/01/10 04:15:37;;;;;;;4.43;2.17;;;;;;;;;;4994322;28;20058;-80
2023/01/10 04:18:04;;;;;;;3.13;2.33;;;;;;;;;;4979697;28;20061;-81
2023/01/10 04:20:30;;;;;;;5.70;2.13;;;;;;;;;;5011557;28;20077;-80
2023/01/10 04:22:57;;;;;;;3.03;1.98;;;;;;;;;;4999781;28;20053;-79
2023/01/10 04:25:24;;;;;;;2.35;2.10;;;;;;;;;;4980060;28;20064;-79
2023/01/10 04:27:51;;;;;;;3.72;2.08;;;;;;;;;;4995515;28;20054;-79
2023/01/10 04:30:18;;;;;;;6.22;1.90;;;;;;;;;;4979413;28;20053;-79
2023/01/10 04:32:46;;;;;;;5.00;2.33;;;;;;;;;;4994912;28;20457;-79
2023/01/10 04:35:12;;;;;;;3.88;1.92;;;;;;;;;;4995229;28;20065;-79
2023/01/10 04:37:39;;;;;;;2.97;1.50;;;;;;;;;;4978795;28;20054;-79
2023/01/10 04:40:07;;;;;;;6.68;1.92;;;;;;;;;;4978579;28;20054;-79
2023/01/10 04:42:33;;;;;;;5.20;1.63;;;;;;;;;;4978887;28;20431;-79
2023/01/10 04:45:00;;;;;;;5.43;1.60;;;;;;;;;;4982365;28;20050;-80
2023/01/10 04:47:32;;;;;;;8.30;2.10;;;;;;;;;;4982053;28;20513;-80
2023/01/10 04:49:59;;;;;;;4.78;1.98;;;;;;;;;;4983147;28;20068;-80
2023/01/10 04:52:29;;;;;;;9.88;2.65;;;;;;;;;;4982162;28;20054;-80
2023/01/10 04:54:56;;;;;;;6.75;2.20;;;;;;;;;;4982694;28;20062;-80
2023/01/10 04:57:22;;;;;;;6.22;2.08;;;;;;;;;;4997757;28;20062;-80
2023/01/10 04:59:49;;;;;;;4.60;1.65;;;;;;;;;;4966037;28;20058;-80
2023/01/10 05:02:16;;;;;;;6.57;2.17;;;;;;;;;;4974246;28;20085;-80
2023/01/10 05:04:43;;;;;;;4.68;1.50;;;;;;;;;;4981187;28;20056;-79
2023/01/10 05:07:09;;;;;;;6.68;2.22;;;;;;;;;;4963880;28;20054;-79
2023/01/10 05:09:36;;;;;;;5.10;1.70;;;;;;;;;;4981942;28;20054;-82
2023/01/10 05:12:03;;;;;;;9.77;2.25;;;;;;;;;;4983442;28;20049;-81
2023/01/10 05:14:30;;;;;;;4.50;2.28;;;;;;;;;;4983870;28;20053;-82
2023/01/10 05:16:57;;;;;;;5.22;2.05;;;;;;;;;;4996934;28;20061;-84
2023/01/10 05:19:24;;;;;;;6.53;2.45;;;;;;;;;;4980601;28;20061;-82
2023/01/10 05:21:52;;;;;;;8.20;2.08;;;;;;;;;;4980816;28;20094;-82
2023/01/10 05:24:18;;;;;;;7.90;1.90;;;;;;;;;;4964568;28;20446;-83
2023/01/10 05:26:45;;;;;;;9.15;2.03;;;;;;;;;;4997194;28;20057;-81
2023/01/10 05:29:13;;;;;;;6.43;2.10;;;;;;;;;;5000038;28;20050;-83
2023/01/10 05:31:40;;;;;;;7.50;2.17;;;;;;;;;;4975716;28;20448;-82
2023/01/10 05:34:10;;;;;;;8.82;2.00;;;;;;;;;;4969528;28;20450;-82
2023/01/10 05:36:37;;;;;;;8.65;2.13;;;;;;;;;;4968248;28;20049;-80
2023/01/10 05:39:04;;;;;;;8.02;2.05;;;;;;;;;;4968163;28;20394;-79
2023/01/10 05:41:30;;;;;;;6.88;2.05;;;;;;;;;;4982599;28;20510;-80
2023/01/10 05:43:57;;;;;;;10.68;1.90;;;;;;;;;;5015654;28;20052;-79
2023/01/10 05:46:24;;;;;;;7.53;2.47;;;;;;;;;;4997810;28;20054;-80
2023/01/10 05:48:51;;;;;;;15.07;2.47;;;;;;;;;;4981748;28;20050;-80
2023/01/10 05:51:18;;;;;;;8.35;2.25;;;;;;;;;;4999035;28;20096;-79
2023/01/10 05:53:45;;;;;;;11.82;2.40;;;;;;;;;;4984019;28;20053;-80
2023/01/10 05:56:13;;;;;;;11.75;2.38;;;;;;;;;;4969081;28;20061;-80
2023/01/10 05:58:41;;;;;;;9.35;2.50;;;;;;;;;;5000290;28;20064;-81
2023/01/10 06:01:08;;;;;;;8.15;2.00;;;;;;;;;;4967836;28;20054;-80
2023/01/10 06:03:35;;;;;;;9.13;1.88;;;;;;;;;;4984872;28;20057;-79
2023/01/10 06:06:02;;;;;;;7.90;1.92;;;;;;;;;;4967641;28;20104;-79
2023/01/10 06:08:29;;;;;;;11.68;2.08;;;;;;;;;;4983725;28;20054;-83
2023/01/10 06:10:56;;;;;;;17.48;2.47;;;;;;;;;;4974757;28;20562;-84
2023/01/10 06:13:23;;;;;;;10.07;2.13;;;;;;;;;;4969743;28;20049;-83
2023/01/10 06:15:50;;;;;;;7.22;1.73;;;;;;;;;;4999368;28;20104;-83
2023/01/10 06:18:17;;;;;;;11.02;2.38;;;;;;;;;;4966180;28;20072;-78
2023/01/10 06:20:43;;;;;;;6.15;1.60;;;;;;;;;;4999134;28;20066;-80
2023/01/10 06:23:10;;;;;;;9.73;1.92;;;;;;;;;;4967222;28;20049;-83
2023/01/10 06:25:39;;;;;;;15.85;2.60;;;;;;;;;;4983515;28;20053;-82
2023/01/10 06:28:07;;;;;;;11.35;1.63;;;;;;;;;;4981264;28;21514;-82
2023/01/10 06:30:34;;;;;;;6.70;1.83;;;;;;;;;;4984390;28;20107;-82
2023/01/10 06:33:02;;;;;;;10.25;2.15;;;;;;;;;;4984068;28;20057;-83
2023/01/10 06:35:29;;;;;;;10.10;2.38;;;;;;;;;;4967409;28;20121;-82
2023/01/10 06:37:56;;;;;;;8.57;1.73;;;;;;;;;;4982293;28;20057;-84
2023/01/10 06:40:23;;;;;;;9.10;2.42;;;;;;;;;;4980324;28;20054;-84
2023/01/10 06:42:50;;;;;;;10.85;2.22;;;;;;;;;;4948659;28;20061;-83
2023/01/10 06:45:17;;;;;;;13.55;2.30;;;;;;;;;;4980251;28;20080;-84
2023/01/10 06:47:44;;;;;;;10.55;2.15;;;;;;;;;;4948568;28;20064;-83
2023/01/10 06:50:11;;;;;;;10.45;2.03;;;;;;;;;;4965286;28;20681;-83
2023/01/10 06:52:38;;;;;;;6.93;2.00;;;;;;;;;;4968031;28;20056;-83
2023/01/10 06:55:05;;;;;;;11.30;2.28;;;;;;;;;;4967545;28;20050;-82
2023/01/10 06:57:36;;;;;;;10.55;3.53;;;;;;;;;;4979516;28;20069;-84
2023/01/10 07:00:05;;;;;;;9.50;2.78;;;;;;;;;;4956745;28;20054;-81
2023/01/10 07:02:32;;;;;;;11.68;3.20;;;;;;;;;;4982639;28;20132;-81
2023/01/10 07:05:01;;;;;;;11.30;2.90;;;;;;;;;;4982263;28;20053;-79
2023/01/10 07:07:29;;;;;;;9.38;2.33;;;;;;;;;;4997704;28;20057;-82
2023/01/10 07:09:58;;;;;;;7.30;1.80;;;;;;;;;;4964786;28;20042;-82
2023/01/10 07:12:25;;;;;;;10.68;2.30;;;;;;;;;;4993815;28;20282;-81
2023/01/10 07:14:52;;;;;;;7.78;2.75;;;;;;;;;;4954614;28;20068;-80
2023/01/10 07:17:19;;;;;;;10.45;2.97;;;;;;;;;;4998088;28;20128;-80
2023/01/10 07:19:45;;;;;;;9.02;2.33;;;;;;;;;;4982850;28;20057;-81
2023/01/10 07:22:12;;;;;;;9.55;2.83;;;;;;;;;;4999209;28;20421;-80
2023/01/10 07:24:39;;;;;;;7.47;2.78;;;;;;;;;;4967067;28;20055;-82
2023/01/10 07:27:06;;;;;;;8.85;2.53;;;;;;;;;;4966050;28;20054;-83
2023/01/10 07:29:32;;;;;;;9.65;2.40;;;;;;;;;;4967006;28;20053;-83
2023/01/10 07:32:04;;;;;;;12.45;2.70;;;;;;;;;;4999154;28;20046;-83
2023/01/10 07:34:31;;;;;;;12.80;2.15;;;;;;;;;;4976674;28;20720;-83
2023/01/10 07:36:58;;;;;;;14.75;2.30;;;;;;;;;;4981475;28;20081;-84
2023/01/10 07:39:24;;;;;;;11.02;2.72;;;;;;;;;;4951476;28;20049;-83
2023/01/10 07:41:52;;;;;;;12.52;4.40;;;;;;;;;;4997286;28;20072;-82
2023/01/10 07:44:18;;;;;;;17.20;6.00;;;;;;;;;;4980752;28;20048;-83
2023/01/10 07:46:45;;;;;;;19.17;5.70;;;;;;;;;;4998757;28;20490;-83
2023/01/10 07:49:13;;;;;;;11.43;3.83;;;;;;;;;;4980726;28;20056;-76
2023/01/10 07:51:39;;;;;;;12.70;3.20;;;;;;;;;;4980048;28;20056;-86
2023/01/10 07:54:06;;;;;;;15.40;2.28;;;;;;;;;;4981802;28;20150;-82
2023/01/10 07:56:33;;;;;;;9.80;2.55;;;;;;;;;;4997375;28;20050;-81
2023/01/10 07:59:00;;;;;;;6.32;2.10;;;;;;;;;;4963489;28;20050;-81
2023/01/10 08:01:29;;;;;;;11.82;1.50;;;;;;;;;;4982985;28;20057;-81
2023/01/10 08:03:57;;;;;;;9.77;2.15;;;;;;;;;;4965658;28;20057;-80
2023/01/10 08:06:23;;;;;;;9.15;1.80;;;;;;;;;;4962849;28;20072;-78
2023/01/10 08:08:54;;;;;;;5.30;1.63;;;;;;;;;;4981591;28;20162;-80
2023/01/10 08:11:22;;;;;;;9.35;2.40;;;;;;;;;;4975910;28;20055;-81
2023/01/10 08:13:49;;;;;;;5.20;1.70;;;;;;;;;;4986968;28;20046;-81
2023/01/10 08:16:16;;;;;;;6.55;1.90;;;;;;;;;;4970361;28;20733;-82
2023/01/10 08:18:44;;;;;;;6.25;1.63;;;;;;;;;;4951516;28;20058;-83
2023/01/10 08:21:11;;;;;;;5.25;1.80;;;;;;;;;;4993537;28;20056;-83
2023/01/10 08:23:37;;;;;;;12.35;2.10;;;;;;;;;;4978744;28;20526;-83
2023/01/10 08:26:04;;;;;;;6.90;1.83;;;;;;;;;;4994020;28;20054;-82
2023/01/10 08:28:31;;;;;;;4.13;1.65;;;;;;;;;;4988252;28;20140;-82
2023/01/10 08:31:07;;;;;;;5.35;1.52;;;;;;;;;;4982156;28;20129;-83
2023/01/10 08:33:36;;;;;;;12.05;2.85;;;;;;;;;;4968053;28;20112;-83
2023/01/10 08:36:03;;;;;;;4.47;1.83;;;;;;;;;;4990427;28;20065;-84
2023/01/10 08:38:29;;;;;;;11.23;2.42;;;;;;;;;;4990581;28;20050;-83
2023/01/10 08:40:57;;;;;;;6.13;2.10;;;;;;;;;;4986744;28;20506;-83
2023/01/10 08:43:24;;;;;;;7.40;2.20;;;;;;;;;;4994831;28;20046;-86
2023/01/10 08:45:51;;;;;;;8.63;2.22;;;;;;;;;;5009987;28;20066;-84
2023/01/10 08:48:20;;;;;;;9.57;2.03;;;;;;;;;;4999857;28;20046;-82
2023/01/10 08:50:47;;;;;;;13.35;3.75;;;;;;;;;;5012739;28;20050;-82
2023/01/10 08:53:13;;;;;;;8.35;3.10;;;;;;;;;;5000093;28;20046;-83
2023/01/10 08:55:40;;;;;;;8.60;2.35;;;;;;;;;;4999145;28;20065;-83
2023/01/10 08:58:19;;;;;;;9.77;2.28;;;;;;;;;;4964431;28;20654;-81
2023/01/10 09:00:48;;;;;;;9.95;1.92;;;;;;;;;;4985863;28;20053;-81
2023/01/10 09:03:15;;;;;;;7.93;2.70;;;;;;;;;;4979811;28;20050;-79
2023/01/10 09:05:41;;;;;;;12.32;3.15;;;;;;;;;;4993642;28;20092;-77
2023/01/10 09:08:08;;;;;;;14.93;2.83;;;;;;;;;;4994380;28;20046;-82
2023/01/10 09:10:35;;;;;;;7.22;2.30;;;;;;;;;;4991642;28;20050;-83
2023/01/10 09:13:03;;;;;;;10.35;2.88;;;;;;;;;;5005222;28;20050;-83
2023/01/10 09:15:32;;;;;;;11.80;2.78;;;;;;;;;;4977439;28;20061;-82
2023/01/10 09:18:01;;;;;;;9.75;2.42;;;;;;;;;;4976810;28;20081;-82
2023/01/10 09:20:28;;;;;;;10.15;4.00;;;;;;;;;;4994488;28;20049;-82
2023/01/10 09:22:55;;;;;;;12.70;2.83;;;;;;;;;;4988101;28;20042;-82
2023/01/10 09:25:23;;;;;;;11.10;3.70;;;;;;;;;;4983569;28;20051;-83
2023/01/10 09:27:58;;;;;;;5.97;2.40;;;;;;;;;;4985456;28;20047;-83
2023/01/10 09:30:25;;;;;;;6.65;1.85;;;;;;;;;;4993861;28;20132;-77
2023/01/10 09:32:52;;;;;;;8.48;1.90;;;;;;;;;;4996648;28;20062;-85
2023/01/10 09:35:19;;;;;;;11.95;2.20;;;;;;;;;;4963693;28;20050;-82
2023/01/10 09:37:46;;;;;;;6.90;2.05;;;;;;;;;;4996623;28;20064;-83
2023/01/10 09:40:18;;;;;;;9.05;3.13;;;;;;;;;;4999183;28;20049;-79
2023/01/10 09:43:03;;;;;;;9.27;6.40;;;;;;;;;;5003306;28;20061;-82
2023/01/10 09:45:38;;;;;;;10.15;2.90;;;;;;;;;;5015744;28;20355;-82
2023/01/10 09:48:08;;;;;;;10.57;2.65;;;;;;;;;;4986633;28;20054;-79
2023/01/10 09:50:44;;;;;;;7.55;2.15;;;;;;;;;;4992808;28;20054;-83
2023/01/10 09:53:15;;;;;;;5.88;1.60;;;;;;;;;;5006495;28;20053;-83
2023/01/10 09:55:42;;;;;;;7.07;2.13;;;;;;;;;;4970014;28;20062;-82
2023/01/10 09:58:13;;;;;;;6.25;1.60;;;;;;;;;;4998986;28;20402;-82
2023/01/10 10:00:50;;;;;;;7.60;2.28;;;;;;;;;;4966244;28;20056;-83
2023/01/10 10:03:35;;;;;;;7.80;2.10;;;;;;;;;;4975916;28;20058;-83
2023/01/10 10:06:04;;;;;;;6.35;1.85;;;;;;;;;;4975261;28;20085;-83
2023/01/10 10:08:41;;;;;;;4.47;1.55;;;;;;;;;;4973939;28;20502;-83
2023/01/10 10:11:26;;;;;;;8.55;2.05;;;;;;;;;;4993165;28;20061;-83
2023/01/10 10:13:54;;;;;;;7.35;2.17;;;;;;;;;;5006294;28;20510;-82
2023/01/10 10:16:44;;;;;;;8.52;2.70;;;;;;;;;;4994930;28;20105;-82
2023/01/10 10:19:30;;;;;;;7.65;2.30;;;;;;;;;;4950248;28;20054;-78
2023/01/10 10:22:18;;;;;;;9.35;1.85;;;;;;;;;;4974763;28;20061;-81
2023/01/10 10:25:01;;;;;;;7.90;1.98;;;;;;;;;;4978277;28;20050;-81
2023/01/10 10:27:44;;;;;;;5.22;1.90;;;;;;;;;;4969803;28;20050;-82
2023/01/10 10:30:23;;;;;;;6.53;1.70;;;;;;;;;;4998548;28;20058;-81
2023/01/10 10:33:28;;;;;;;5.53;2.30;;;;;;;;;;4991028;28;20388;-82
2023/01/10 10:35:59;;;;;;;5.13;1.50;;;;;;;;;;5011580;28;20050;-82
2023/01/10 10:38:28;;;;;;;4.72;1.73;;;;;;;;;;4978061;28;20414;-82
2023/01/10 10:40:57;;;;;;;8.10;2.47;;;;;;;;;;4996780;28;20047;-82
2023/01/10 10:43:32;;;;;;;5.32;1.90;;;;;;;;;;4958122;28;20052;-83
2023/01/10 10:46:09;;;;;;;7.05;2.40;;;;;;;;;;4991264;28;20054;-83
2023/01/10 10:48:41;;;;;;;6.00;1.67;;;;;;;;;;4979365;28;20081;-83
2023/01/10 10:51:42;;;;;;;11.55;2.85;;;;;;;;;;4986366;28;20141;-82
2023/01/10 10:54:18;;;;;;;8.38;1.92;;;;;;;;;;4978625;28;20058;-84
2023/01/10 10:56:45;;;;;;;6.13;1.90;;;;;;;;;;4971830;28;20093;-82
2023/01/10 10:59:16;;;;;;;5.78;2.58;;;;;;;;;;4960973;28;20096;-82
2023/01/10 11:01:48;;;;;;;5.40;1.92;;;;;;;;;;4980863;28;20137;-82
2023/01/10 11:04:18;;;;;;;8.83;2.20;;;;;;;;;;4979406;28;20065;-82
2023/01/10 11:06:48;;;;;;;4.55;1.88;;;;;;;;;;4960467;28;20303;-81
2023/01/10 11:09:24;;;;;;;7.05;2.53;;;;;;;;;;4992872;28;20064;-82
2023/01/10 11:11:51;;;;;;;5.93;1.77;;;;;;;;;;4958260;28;20054;-82
2023/01/10 11:14:48;;;;;;;6.70;1.75;;;;;;;;;;4972994;28;20058;-81
2023/01/10 11:17:25;;;;;;;7.20;1.30;;;;;;;;;;4968221;28;20064;-81
2023/01/10 11:20:00;;;;;;;6.72;2.10;;;;;;;;;;4976013;28;20058;-81
2023/01/10 11:22:30;;;;;;;5.93;2.13;;;;;;;;;;4974758;28;20104;-82
2023/01/10 11:25:00;;;;;;;9.07;2.13;;;;;;;;;;4974986;28;20052;-82
2023/01/10 11:27:32;;;;;;;8.57;2.35;;;;;;;;;;4956063;28;20474;-82
2023/01/10 11:30:03;;;;;;;6.35;1.88;;;;;;;;;;4958164;28;20046;-82
2023/01/10 11:32:47;;;;;;;8.93;2.55;;;;;;;;;;4978773;28;20113;-82
2023/01/10 11:35:22;;;;;;;6.18;1.80;;;;;;;;;;4963164;28;20089;-83
2023/01/10 11:38:13;;;;;;;9.65;2.20;;;;;;;;;;4973768;28;20085;-82
2023/01/10 11:40:54;;;;;;;8.73;1.40;;;;;;;;;;4987959;28;20042;-82
2023/01/10 11:43:35;;;;;;;6.28;1.70;;;;;;;;;;4969328;28;20046;-83
2023/01/10 11:46:26;;;;;;;10.57;2.65;;;;;;;;;;4976134;28;20049;-82
2023/01/10 11:49:05;;;;;;;9.13;2.47;;;;;;;;;;4976521;28;20050;-82
2023/01/10 11:51:43;;;;;;;9.05;2.60;;;;;;;;;;4985033;28;20113;-82
2023/01/10 11:54:16;;;;;;;6.10;2.00;;;;;;;;;;4978497;28;20046;-83
2023/01/10 11:56:43;;;;;;;4.43;1.75;;;;;;;;;;4958811;28;20058;-83
2023/01/10 11:59:14;;;;;;;4.15;1.40;;;;;;;;;;4987183;28;20058;-84
2023/01/10 12:01:47;;;;;;;4.68;1.70;;;;;;;;;;4979964;28;20560;-85
2023/01/10 12:04:17;;;;;;;;;;;;;;;;;;4978627;28;20498;-83
2023/01/10 12:06:45;;;;;;;4.82;1.80;;;;;;;;;;4973849;28;20012;-84
2023/01/10 12:09:36;;;;;;;4.63;1.20;;;;;;;;;;4977775;28;20224;-84
2023/01/10 12:12:24;;;;;;;5.55;1.65;;;;;;;;;;4988637;28;20050;-83
2023/01/10 12:14:52;;;;;;;6.63;1.58;;;;;;;;;;4972491;28;20042;-83
2023/01/10 12:17:20;;;;;;;5.53;1.38;;;;;;;;;;4957739;28;20050;-83
2023/01/10 12:19:51;;;;;;;5.05;1.90;;;;;;;;;;4976491;28;20077;-83
2023/01/10 12:22:24;;;;;;;4.43;1.55;;;;;;;;;;4975164;28;20057;-82
2023/01/10 12:24:50;;;;;;;4.97;1.25;;;;;;;;;;4972965;28;20419;-83
2023/01/10 12:27:18;;;;;;;6.30;1.95;;;;;;;;;;4954187;28;20047;-83
2023/01/10 12:29:50;;;;;;;6.10;1.55;;;;;;;;;;4960929;28;20058;-83
2023/01/10 12:32:23;;;;;;;7.13;1.87;;;;;;;;;;4974543;28;20046;-83
2023/01/10 12:34:56;;;;;;;3.28;1.40;;;;;;;;;;4953505;28;20509;-83
2023/01/10 12:37:46;;;;;;;9.30;1.60;;;;;;;;;;4975448;28;20576;-83
2023/01/10 12:40:42;;;;;;;5.95;1.83;;;;;;;;;;4986269;28;20062;-83
2023/01/10 12:46:08;;;;;;;9.50;2.72;;;;;;;;;;4984294;28;20050;-85
2023/01/10 12:48:56;;;;;;;6.85;2.45;;;;;;;;;;4963655;28;20065;-84
2023/01/10 12:51:24;;;;;;;6.88;1.95;;;;;;;;;;4974551;28;20502;-83
2023/01/10 12:54:00;;;;;;;5.97;1.45;;;;;;;;;;4957378;28;20050;-83
2023/01/10 12:56:27;;;;;;;5.68;1.60;;;;;;;;;;4972746;28;20054;-84
2023/01/10 12:59:04;;;;;;;6.50;1.52;;;;;;;;;;4972596;28;20049;-84
2023/01/10 13:01:33;;;;;;;6.55;1.20;;;;;;;;;;4948396;28;20061;-84
2023/01/10 13:04:03;;;;;;;14.00;1.55;;;;;;;;;;4952355;28;20050;-82
2023/01/10 13:06:34;;;;;;;6.82;1.40;;;;;;;;;;4955853;28;20054;-83
2023/01/10 13:09:16;;;;;;;5.38;1.65;;;;;;;;;;4972730;28;20049;-83
2023/01/10 13:12:07;;;;;;;3.72;0.80;;;;;;;;;;4974662;28;20070;-83
2023/01/10 13:14:40;;;;;;;10.75;3.05;;;;;;;;;;4985170;28;20042;-85
2023/01/10 13:17:19;;;;;;;4.20;1.15;;;;;;;;;;4977798;28;20082;-85
2023/01/10 13:20:15;;;;;;;6.47;1.30;;;;;;;;;;4976721;28;20557;-83
2023/01/10 13:22:44;;;;;;;6.82;1.30;;;;;;;;;;4990719;28;20077;-84
2023/01/10 13:25:29;;;;;;;6.43;1.73;;;;;;;;;;4976305;28;20061;-80
2023/01/10 13:27:56;;;;;;;5.72;1.10;;;;;;;;;;4973618;28;20132;-80
2023/01/10 13:30:36;;;;;;;5.43;1.20;;;;;;;;;;4972818;28;20062;-80
2023/01/10 13:33:14;;;;;;;3.67;1.10;;;;;;;;;;4988551;28;20054;-79
2023/01/10 13:35:41;;;;;;;2.97;1.08;;;;;;;;;;4989912;28;20066;-79
2023/01/10 13:38:21;;;;;;;5.47;1.08;;;;;;;;;;4987932;28;20058;-80
2023/01/10 13:44:05;;;;;;;5.15;1.10;;;;;;;;;;4991554;28;20042;-81
2023/01/10 13:46:34;;;;;;;5.57;1.85;;;;;;;;;;4958615;28;20050;-80
2023/01/10 13:49:02;;;;;;;6.45;1.13;;;;;;;;;;4982152;28;20352;-80
2023/01/10 13:51:30;;;;;;;7.18;1.10;;;;;;;;;;4989116;28;20116;-80
2023/01/10 13:53:58;;;;;;;7.10;1.38;;;;;;;;;;4971191;28;20434;-81
2023/01/10 13:56:32;;;;;;;7.93;2.03;;;;;;;;;;4954325;28;20089;-80
2023/01/10 14:05:01;;;;;;;5.43;0.90;;;;;;;;;;4987113;28;20086;-80
2023/01/10 14:07:34;;;;;;;6.55;1.90;;;;;;;;;;4968615;28;20054;-80
2023/01/10 14:10:09;;;;;;;5.90;1.63;;;;;;;;;;4969132;28;20050;-79
2023/01/10 14:12:39;;;;;;;5.38;1.35;;;;;;;;;;4984603;28;20359;-79
2023/01/10 14:15:26;;;;;;;9.88;1.50;;;;;;;;;;4960033;28;20114;-79
2023/01/10 14:17:59;;;;;;;5.05;1.00;;;;;;;;;;4970839;28;20050;-80
2023/01/10 14:20:26;;;;;;;4.43;1.75;;;;;;;;;;4986403;28;20046;-80
2023/01/10 14:23:17;;;;;;;2.42;1.10;;;;;;;;;;4987999;28;20332;-80
2023/01/10 14:25:44;;;;;;;4.55;1.25;;;;;;;;;;4977323;28;20495;-79
2023/01/10 14:28:20;;;;;;;3.45;1.27;;;;;;;;;;4967854;28;20053;-79
2023/01/10 14:31:01;;;;;;;3.72;1.73;;;;;;;;;;4985959;28;20060;-79
2023/01/10 14:33:28;;;;;;;6.20;1.35;;;;;;;;;;4985325;28;20129;-80
2023/01/10 14:35:58;;;;;;;4.97;1.42;;;;;;;;;;4962196;28;20050;-80
2023/01/10 14:38:28;;;;;;;9.45;1.95;;;;;;;;;;4955114;28;20045;-80
2023/01/10 14:41:33;;;;;;;6.15;1.40;;;;;;;;;;4972470;28;20058;-80
2023/01/10 14:44:05;;;;;;;6.40;1.48;;;;;;;;;;4970246;28;20493;-80
2023/01/10 14:46:49;;;;;;;4.97;1.15;;;;;;;;;;4970774;28;20132;-80
2023/01/10 14:49:28;;;;;;;5.88;1.15;;;;;;;;;;4973079;28;20530;-80
2023/01/10 14:52:10;;;;;;;5.03;1.23;;;;;;;;;;4962891;28;20050;-80
2023/01/10 14:54:37;;;;;;;3.53;0.90;;;;;;;;;;4975490;28;20057;-80
2023/01/10 14:57:04;;;;;;;4.05;0.88;;;;;;;;;;4959508;28;20333;-80
2023/01/10 14:59:34;;;;;;;5.53;1.02;;;;;;;;;;4971132;28;20058;-80
2023/01/10 15:02:28;;;;;;;3.60;0.90;;;;;;;;;;4972434;28;20050;-80
2023/01/10 15:05:08;;;;;;;9.95;2.75;;;;;;;;;;4971655;28;20053;-81
2023/01/10 15:07:36;;;;;;;10.15;2.53;;;;;;;;;;4974831;28;20057;-82
2023/01/10 15:10:26;;;;;;;5.90;2.60;;;;;;;;;;4979088;28;20054;-80
2023/01/10 15:12:55;;;;;;;6.10;1.80;;;;;;;;;;4969061;28;20564;-78
2023/01/10 15:15:28;;;;;;;5.20;1.92;;;;;;;;;;4957088;28;20052;-80
2023/01/10 15:17:55;;;;;;;3.33;2.00;;;;;;;;;;4971170;28;20049;-80
2023/01/10 15:20:22;;;;;;;6.00;1.73;;;;;;;;;;4979459;28;20060;-80
2023/01/10 15:22:54;;;;;;;32.92;21.52;;;;;;;;;;4976835;28;20049;-80
2023/01/10 15:25:37;;;;;;;8.15;4.45;;;;;;;;;;4985113;28;20505;-80
2023/01/10 15:28:16;;;;;;;4.27;1.60;;;;;;;;;;4973594;28;20588;-80
2023/01/10 15:30:43;;;;;;;6.10;1.60;;;;;;;;;;4971286;28;20442;-80